Terminal Aerodrome Forecast
Issued by NWS Mt. Holly, NJ

Home | Current Version | Previous Version | Text Only | Print | Product List | Glossary On
Versions: 1 2 3 4 5 6 7 8 9 10 11 12 13 14
000
FTUS41 KPHI 230603 AAA
TAFILG
TAF AMD
KILG 230603Z 2306/2406 VRB03KT P6SM OVC004
     FM230900 10003KT 5SM BR BKN006
     FM231200 12004KT 6SM BR OVC012
     FM231400 15006KT P6SM OVC025
     FM231700 14010KT P6SM OVC040
     FM240200 14014KT P6SM OVC025=

USA.gov is the U.S. government's official web portal to all federal, state and local government web resources and services.